sensor_id;sensor_type;location;lat;lon;timestamp;temperature;humidity
9265;DHT22;4669;49.594;10.958;2023-04-06T04:27:02;2.40;95.40
9265;DHT22;4669;49.594;10.958;2023-04-06T04:32:07;2.40;95.40
9265;DHT22;4669;49.594;10.958;2023-04-06T04:37:10;2.50;95.10
9265;DHT22;4669;49.594;10.958;2023-04-06T04:42:23;2.40;95.20
9265;DHT22;4669;49.594;10.958;2023-04-06T04:47:29;2.40;95.10
9265;DHT22;4669;49.594;10.958;2023-04-06T04:52:32;2.40;95.20
9265;DHT22;4669;49.594;10.958;2023-04-06T04:57:55;2.40;95.30
9265;DHT22;4669;49.594;10.958;2023-04-06T05:03:08;2.40;95.50
9265;DHT22;4669;49.594;10.958;2023-04-06T05:08:14;2.40;95.50
9265;DHT22;4669;49.594;10.958;2023-04-06T05:13:22;2.40;95.50
9265;DHT22;4669;49.594;10.958;2023-04-06T05:18:25;2.30;95.70
9265;DHT22;4669;49.594;10.958;2023-04-06T05:23:29;2.30;95.60
9265;DHT22;4669;49.594;10.958;2023-04-06T05:28:35;2.20;95.70
9265;DHT22;4669;49.594;10.958;2023-04-06T05:33:39;2.30;95.80
9265;DHT22;4669;49.594;10.958;2023-04-06T05:38:47;2.10;96.10
9265;DHT22;4669;49.594;10.958;2023-04-06T05:44:06;2.20;96.40
9265;DHT22;4669;49.594;10.958;2023-04-06T05:49:08;2.20;96.40
9265;DHT22;4669;49.594;10.958;2023-04-06T05:54:10;2.30;96.20
9265;DHT22;4669;49.594;10.958;2023-04-06T05:59:15;2.30;96.40
9265;DHT22;4669;49.594;10.958;2023-04-06T06:04:18;2.40;96.30
9265;DHT22;4669;49.594;10.958;2023-04-06T06:09:23;2.40;96.00
9265;DHT22;4669;49.594;10.958;2023-04-06T06:14:36;2.40;95.80
9265;DHT22;4669;49.594;10.958;2023-04-06T06:19:38;2.40;95.80
9265;DHT22;4669;49.594;10.958;2023-04-06T06:24:42;2.40;95.80
9265;DHT22;4669;49.594;10.958;2023-04-06T06:29:47;2.50;95.80
9265;DHT22;4669;49.594;10.958;2023-04-06T06:34:49;2.50;95.50
9265;DHT22;4669;49.594;10.958;2023-04-06T06:39:53;2.60;95.50
9265;DHT22;4669;49.594;10.958;2023-04-06T06:44:57;2.60;95.60
9265;DHT22;4669;49.594;10.958;2023-04-06T06:50:00;2.80;95.50
9265;DHT22;4669;49.594;10.958;2023-04-06T06:55:04;2.80;95.20
9265;DHT22;4669;49.594;10.958;2023-04-06T07:00:09;2.90;95.00
9265;DHT22;4669;49.594;10.958;2023-04-06T07:05:13;3.00;94.90
9265;DHT22;4669;49.594;10.958;2023-04-06T07:10:15;3.10;94.80
9265;DHT22;4669;49.594;10.958;2023-04-06T07:15:19;3.20;94.60
9265;DHT22;4669;49.594;10.958;2023-04-06T07:20:21;3.30;94.30
9265;DHT22;4669;49.594;10.958;2023-04-06T07:25:23;3.40;94.50
9265;DHT22;4669;49.594;10.958;2023-04-06T07:30:27;3.50;94.30
9265;DHT22;4669;49.594;10.958;2023-04-06T07:35:30;3.60;94.40
9265;DHT22;4669;49.594;10.958;2023-04-06T07:40:32;3.70;94.40
9265;DHT22;4669;49.594;10.958;2023-04-06T07:45:36;3.90;94.50
9265;DHT22;4669;49.594;10.958;2023-04-06T07:50:38;4.00;94.60
9265;DHT22;4669;49.594;10.958;2023-04-06T07:55:42;4.10;94.70
9265;DHT22;4669;49.594;10.958;2023-04-06T08:00:46;4.20;94.50
9265;DHT22;4669;49.594;10.958;2023-04-06T08:05:48;4.30;94.40
9265;DHT22;4669;49.594;10.958;2023-04-06T08:10:50;4.40;94.20
9265;DHT22;4669;49.594;10.958;2023-04-06T08:15:54;4.40;94.40
9265;DHT22;4669;49.594;10.958;2023-04-06T08:20:56;4.50;94.50
9265;DHT22;4669;49.594;10.958;2023-04-06T08:25:58;4.70;93.80
9265;DHT22;4669;49.594;10.958;2023-04-06T08:31:05;4.80;94.00
9265;DHT22;4669;49.594;10.958;2023-04-06T08:36:08;4.90;93.90
9265;DHT22;4669;49.594;10.958;2023-04-06T08:41:11;4.90;94.10
9265;DHT22;4669;49.594;10.958;2023-04-06T08:46:15;5.10;93.60
9265;DHT22;4669;49.594;10.958;2023-04-06T08:51:17;5.30;93.40
9265;DHT22;4669;49.594;10.958;2023-04-06T08:56:21;5.60;93.10
9265;DHT22;4669;49.594;10.958;2023-04-06T09:01:26;5.60;93.00
9265;DHT22;4669;49.594;10.958;2023-04-06T09:06:28;5.90;91.70
9265;DHT22;4669;49.594;10.958;2023-04-06T09:11:42;6.00;91.10
9265;DHT22;4669;49.594;10.958;2023-04-06T09:16:46;6.00;90.80
9265;DHT22;4669;49.594;10.958;2023-04-06T09:21:48;6.10;90.30
9265;DHT22;4669;49.594;10.958;2023-04-06T09:26:50;6.40;90.40
9265;DHT22;4669;49.594;10.958;2023-04-06T09:32:02;6.40;90.30
9265;DHT22;4669;49.594;10.958;2023-04-06T09:37:14;6.50;90.30
9265;DHT22;4669;49.594;10.958;2023-04-06T09:42:23;6.50;90.10
9265;DHT22;4669;49.594;10.958;2023-04-06T09:47:28;6.60;91.10
9265;DHT22;4669;49.594;10.958;2023-04-06T09:52:33;6.80;89.10
9265;DHT22;4669;49.594;10.958;2023-04-06T09:57:43;6.90;87.60
9265;DHT22;4669;49.594;10.958;2023-04-06T10:02:54;7.00;85.60
9265;DHT22;4669;49.594;10.958;2023-04-06T10:08:02;7.20;83.40
9265;DHT22;4669;49.594;10.958;2023-04-06T10:13:07;7.30;85.80
9265;DHT22;4669;49.594;10.958;2023-04-06T10:18:12;7.50;86.00
9265;DHT22;4669;49.594;10.958;2023-04-06T10:23:19;7.60;85.00
9265;DHT22;4669;49.594;10.958;2023-04-06T10:28:23;7.50;85.90
9265;DHT22;4669;49.594;10.958;2023-04-06T10:33:27;7.60;87.50
9265;DHT22;4669;49.594;10.958;2023-04-06T10:38:33;7.70;86.00
9265;DHT22;4669;49.594;10.958;2023-04-06T10:43:37;7.90;87.00
9265;DHT22;4669;49.594;10.958;2023-04-06T10:48:41;8.10;82.40
9265;DHT22;4669;49.594;10.958;2023-04-06T10:53:45;8.10;85.20
9265;DHT22;4669;49.594;10.958;2023-04-06T10:58:50;8.10;85.70
9265;DHT22;4669;49.594;10.958;2023-04-06T11:03:56;8.10;83.00
9265;DHT22;4669;49.594;10.958;2023-04-06T11:08:59;8.00;82.50
9265;DHT22;4669;49.594;10.958;2023-04-06T11:14:01;8.20;78.90
9265;DHT22;4669;49.594;10.958;2023-04-06T11:19:05;8.20;82.70
9265;DHT22;4669;49.594;10.958;2023-04-06T11:24:09;8.40;82.50
9265;DHT22;4669;49.594;10.958;2023-04-06T11:29:12;8.70;81.50
9265;DHT22;4669;49.594;10.958;2023-04-06T11:34:18;8.70;80.70
9265;DHT22;4669;49.594;10.958;2023-04-06T11:39:22;8.80;78.70
9265;DHT22;4669;49.594;10.958;2023-04-06T11:44:31;9.00;78.30
9265;DHT22;4669;49.594;10.958;2023-04-06T11:49:37;9.10;78.70
9265;DHT22;4669;49.594;10.958;2023-04-06T11:54:39;8.90;80.50
9265;DHT22;4669;49.594;10.958;2023-04-06T11:59:41;9.00;81.50
9265;DHT22;4669;49.594;10.958;2023-04-06T12:04:45;9.00;81.20
9265;DHT22;4669;49.594;10.958;2023-04-06T12:09:48;9.20;78.40
9265;DHT22;4669;49.594;10.958;2023-04-06T12:14:50;9.50;75.30
9265;DHT22;4669;49.594;10.958;2023-04-06T12:19:53;9.40;77.60
9265;DHT22;4669;49.594;10.958;2023-04-06T12:24:55;9.40;77.60
9265;DHT22;4669;49.594;10.958;2023-04-06T12:29:57;9.80;76.80
9265;DHT22;4669;49.594;10.958;2023-04-06T12:35:01;9.90;75.80
9265;DHT22;4669;49.594;10.958;2023-04-06T12:40:04;10.10;73.30
9265;DHT22;4669;49.594;10.958;2023-04-06T12:45:07;10.10;73.50
9265;DHT22;4669;49.594;10.958;2023-04-06T12:50:11;10.30;73.70
9265;DHT22;4669;49.594;10.958;2023-04-06T12:55:14;10.40;74.60
9265;DHT22;4669;49.594;10.958;2023-04-06T13:00:16;10.30;72.70
9265;DHT22;4669;49.594;10.958;2023-04-06T13:05:20;10.00;73.70
9265;DHT22;4669;49.594;10.958;2023-04-06T13:10:22;10.20;71.20
9265;DHT22;4669;49.594;10.958;2023-04-06T13:15:24;10.30;73.00
9265;DHT22;4669;49.594;10.958;2023-04-06T13:20:28;10.50;70.80
9265;DHT22;4669;49.594;10.958;2023-04-06T13:25:30;10.70;69.10
9265;DHT22;4669;49.594;10.958;2023-04-06T13:30:33;10.60;68.80
9265;DHT22;4669;49.594;10.958;2023-04-06T13:35:36;10.80;67.70
9265;DHT22;4669;49.594;10.958;2023-04-06T13:40:39;11.00;69.30
9265;DHT22;4669;49.594;10.958;2023-04-06T13:45:41;11.40;68.70
9265;DHT22;4669;49.594;10.958;2023-04-06T13:50:51;11.50;68.50
9265;DHT22;4669;49.594;10.958;2023-04-06T13:55:53;11.60;65.90
9265;DHT22;4669;49.594;10.958;2023-04-06T14:01:01;11.20;65.40
9265;DHT22;4669;49.594;10.958;2023-04-06T14:06:11;10.90;68.90
9265;DHT22;4669;49.594;10.958;2023-04-06T14:11:13;11.10;68.30
9265;DHT22;4669;49.594;10.958;2023-04-06T14:16:15;11.30;69.00
9265;DHT22;4669;49.594;10.958;2023-04-06T14:21:21;11.60;68.20
9265;DHT22;4669;49.594;10.958;2023-04-06T14:26:24;11.90;67.40
9265;DHT22;4669;49.594;10.958;2023-04-06T14:31:27;12.20;65.60
9265;DHT22;4669;49.594;10.958;2023-04-06T14:36:31;12.20;68.00
9265;DHT22;4669;49.594;10.958;2023-04-06T14:41:36;12.10;67.90
9265;DHT22;4669;49.594;10.958;2023-04-06T14:46:38;11.80;65.00
9265;DHT22;4669;49.594;10.958;2023-04-06T14:51:42;11.40;65.70
9265;DHT22;4669;49.594;10.958;2023-04-06T14:56:44;11.20;66.60
9265;DHT22;4669;49.594;10.958;2023-04-06T15:01:46;11.20;67.70
9265;DHT22;4669;49.594;10.958;2023-04-06T15:06:49;11.40;67.70
9265;DHT22;4669;49.594;10.958;2023-04-06T15:11:51;11.80;67.40
9265;DHT22;4669;49.594;10.958;2023-04-06T15:16:53;12.20;67.00
9265;DHT22;4669;49.594;10.958;2023-04-06T15:21:57;12.40;67.70
9265;DHT22;4669;49.594;10.958;2023-04-06T15:26:59;12.60;66.40
9265;DHT22;4669;49.594;10.958;2023-04-06T15:32:01;12.80;64.20
9265;DHT22;4669;49.594;10.958;2023-04-06T15:37:05;13.10;62.40
9265;DHT22;4669;49.594;10.958;2023-04-06T15:42:07;13.40;61.10
9265;DHT22;4669;49.594;10.958;2023-04-06T15:47:09;13.50;61.40
9265;DHT22;4669;49.594;10.958;2023-04-06T15:52:13;13.70;60.40
9265;DHT22;4669;49.594;10.958;2023-04-06T15:57:15;13.90;60.00
9265;DHT22;4669;49.594;10.958;2023-04-06T16:02:17;14.10;59.20
9265;DHT22;4669;49.594;10.958;2023-04-06T16:07:21;14.40;59.50
9265;DHT22;4669;49.594;10.958;2023-04-06T16:12:23;14.60;56.70
9265;DHT22;4669;49.594;10.958;2023-04-06T16:17:25;14.40;56.10
9265;DHT22;4669;49.594;10.958;2023-04-06T16:22:29;14.30;55.40
9265;DHT22;4669;49.594;10.958;2023-04-06T16:27:31;14.10;57.00
9265;DHT22;4669;49.594;10.958;2023-04-06T16:32:33;14.20;56.60
9265;DHT22;4669;49.594;10.958;2023-04-06T16:37:37;14.10;57.80
9265;DHT22;4669;49.594;10.958;2023-04-06T16:42:41;14.40;57.20
9265;DHT22;4669;49.594;10.958;2023-04-06T16:47:43;14.20;58.60
9265;DHT22;4669;49.594;10.958;2023-04-06T16:52:48;13.90;59.40
9265;DHT22;4669;49.594;10.958;2023-04-06T16:57:54;12.90;60.30
9265;DHT22;4669;49.594;10.958;2023-04-06T17:02:56;12.30;60.10
9265;DHT22;4669;49.594;10.958;2023-04-06T17:07:59;11.80;60.90
9265;DHT22;4669;49.594;10.958;2023-04-06T17:13:01;11.60;61.60
9265;DHT22;4669;49.594;10.958;2023-04-06T17:18:03;11.30;61.80
9265;DHT22;4669;49.594;10.958;2023-04-06T17:23:07;11.00;63.70
9265;DHT22;4669;49.594;10.958;2023-04-06T17:28:09;10.80;66.20
9265;DHT22;4669;49.594;10.958;2023-04-06T17:33:11;10.70;67.50
9265;DHT22;4669;49.594;10.958;2023-04-06T17:38:14;10.40;66.40
9265;DHT22;4669;49.594;10.958;2023-04-06T17:43:17;10.30;67.90
9265;DHT22;4669;49.594;10.958;2023-04-06T17:48:18;10.10;70.00
9265;DHT22;4669;49.594;10.958;2023-04-06T17:53:22;10.00;69.90
9265;DHT22;4669;49.594;10.958;2023-04-06T17:58:24;9.90;71.30
9265;DHT22;4669;49.594;10.958;2023-04-06T18:03:27;9.80;74.10
9265;DHT22;4669;49.594;10.958;2023-04-06T18:08:30;9.70;75.40
9265;DHT22;4669;49.594;10.958;2023-04-06T18:13:33;9.60;73.70
9265;DHT22;4669;49.594;10.958;2023-04-06T18:18:35;9.50;75.30
9265;DHT22;4669;49.594;10.958;2023-04-06T18:23:39;9.40;76.70
9265;DHT22;4669;49.594;10.958;2023-04-06T18:28:41;9.30;78.20
9265;DHT22;4669;49.594;10.958;2023-04-06T18:33:43;9.20;78.70
9265;DHT22;4669;49.594;10.958;2023-04-06T18:38:48;9.00;78.60
9265;DHT22;4669;49.594;10.958;2023-04-06T18:43:50;8.90;79.50
9265;DHT22;4669;49.594;10.958;2023-04-06T18:48:52;8.90;81.40
9265;DHT22;4669;49.594;10.958;2023-04-06T18:53:56;8.90;82.10
9265;DHT22;4669;49.594;10.958;2023-04-06T18:58:58;8.70;82.60
9265;DHT22;4669;49.594;10.958;2023-04-06T19:04:00;8.60;82.60
9265;DHT22;4669;49.594;10.958;2023-04-06T19:09:03;8.60;84.70
9265;DHT22;4669;49.594;10.958;2023-04-06T19:14:05;8.40;84.30
9265;DHT22;4669;49.594;10.958;2023-04-06T19:19:07;8.50;85.60
9265;DHT22;4669;49.594;10.958;2023-04-06T19:24:11;8.40;86.50
9265;DHT22;4669;49.594;10.958;2023-04-06T19:29:13;8.30;87.30
9265;DHT22;4669;49.594;10.958;2023-04-06T19:34:15;8.10;87.00
9265;DHT22;4669;49.594;10.958;2023-04-06T19:39:19;8.00;87.90
9265;DHT22;4669;49.594;10.958;2023-04-06T19:44:21;8.00;88.00
9265;DHT22;4669;49.594;10.958;2023-04-06T19:49:24;8.00;90.00
9265;DHT22;4669;49.594;10.958;2023-04-06T19:54:29;8.00;90.40
9265;DHT22;4669;49.594;10.958;2023-04-06T19:59:31;7.90;90.70
9265;DHT22;4669;49.594;10.958;2023-04-06T20:04:34;7.80;91.00
9265;DHT22;4669;49.594;10.958;2023-04-06T20:09:37;7.70;90.80
9265;DHT22;4669;49.594;10.958;2023-04-06T20:14:39;7.50;91.00
9265;DHT22;4669;49.594;10.958;2023-04-06T20:19:41;7.50;91.40
9265;DHT22;4669;49.594;10.958;2023-04-06T20:24:45;7.50;91.50
9265;DHT22;4669;49.594;10.958;2023-04-06T20:29:47;7.40;91.40
9265;DHT22;4669;49.594;10.958;2023-04-06T20:34:49;7.30;92.10
9265;DHT22;4669;49.594;10.958;2023-04-06T20:39:53;7.20;91.70
9265;DHT22;4669;49.594;10.958;2023-04-06T20:44:55;7.10;91.80
9265;DHT22;4669;49.594;10.958;2023-04-06T20:49:58;7.10;92.20
9265;DHT22;4669;49.594;10.958;2023-04-06T20:55:02;7.00;92.10
9265;DHT22;4669;49.594;10.958;2023-04-06T21:00:05;7.00;92.40
9265;DHT22;4669;49.594;10.958;2023-04-06T21:05:09;7.00;92.50
9265;DHT22;4669;49.594;10.958;2023-04-06T21:10:12;6.90;92.50
9265;DHT22;4669;49.594;10.958;2023-04-06T21:15:15;6.90;92.40
9265;DHT22;4669;49.594;10.958;2023-04-06T21:20:17;6.90;92.60
9265;DHT22;4669;49.594;10.958;2023-04-06T21:25:20;6.80;91.90
9265;DHT22;4669;49.594;10.958;2023-04-06T21:30:23;6.70;91.70
9265;DHT22;4669;49.594;10.958;2023-04-06T21:35:25;6.60;92.10
9265;DHT22;4669;49.594;10.958;2023-04-06T21:40:28;6.70;92.70
9265;DHT22;4669;49.594;10.958;2023-04-06T21:45:30;6.70;92.90
9265;DHT22;4669;49.594;10.958;2023-04-06T21:50:38;6.50;92.70
9265;DHT22;4669;49.594;10.958;2023-04-06T21:55:45;6.50;92.90
9265;DHT22;4669;49.594;10.958;2023-04-06T22:05:51;6.40;93.30
9265;DHT22;4669;49.594;10.958;2023-04-06T22:10:55;6.40;93.40
9265;DHT22;4669;49.594;10.958;2023-04-06T22:15:57;6.50;93.50
9265;DHT22;4669;49.594;10.958;2023-04-06T22:20:59;6.40;92.90
9265;DHT22;4669;49.594;10.958;2023-04-06T22:26:04;6.40;92.90
9265;DHT22;4669;49.594;10.958;2023-04-06T22:31:06;6.30;92.80
9265;DHT22;4669;49.594;10.958;2023-04-06T22:36:08;6.30;93.40
9265;DHT22;4669;49.594;10.958;2023-04-06T22:41:12;6.30;93.30
9265;DHT22;4669;49.594;10.958;2023-04-06T22:46:14;6.20;92.70
9265;DHT22;4669;49.594;10.958;2023-04-06T22:51:16;6.20;92.70
9265;DHT22;4669;49.594;10.958;2023-04-06T22:56:19;6.30;92.20
9265;DHT22;4669;49.594;10.958;2023-04-06T23:01:21;6.20;92.00
9265;DHT22;4669;49.594;10.958;2023-04-06T23:06:24;6.20;92.40
9265;DHT22;4669;49.594;10.958;2023-04-06T23:11:28;6.20;92.40
9265;DHT22;4669;49.594;10.958;2023-04-06T23:16:30;6.20;92.20
9265;DHT22;4669;49.594;10.958;2023-04-06T23:21:32;6.20;91.90
9265;DHT22;4669;49.594;10.958;2023-04-06T23:26:36;6.20;91.90
9265;DHT22;4669;49.594;10.958;2023-04-06T23:31:38;6.10;92.00
9265;DHT22;4669;49.594;10.958;2023-04-06T23:36:40;6.10;92.20
9265;DHT22;4669;49.594;10.958;2023-04-06T23:41:43;6.00;92.20
9265;DHT22;4669;49.594;10.958;2023-04-06T23:46:45;6.00;92.20
9265;DHT22;4669;49.594;10.958;2023-04-06T23:51:47;6.00;92.00
9265;DHT22;4669;49.594;10.958;2023-04-06T23:56:51;6.00;92.10
